ZYTX/SHE METAR and TAF weather

Enter ICAO airport designator
Station Type Date Time Source
ZYTX METAR 2021/07/24 21:00 UTC NOAA

ZYTX 242100Z 15003MPS CAVOK 23/21 Q1007 NOSIG


Station Type Date Time Source
ZYTX Decoded METAR 2021/07/24 21:00 UTC NOAA

Shenyang / Taokian, China (ZYTX) 41-48N 123-24E
Jul 24, 2021 - 05:00 PM EDT / 2021.07.24 2100 UTC
Wind: from the SSE (150 degrees) at 7 MPH (6 KT):0
Visibility: greater than 7 mile(s):0
Temperature: 73 F (23 C)
Dew Point: 69 F (21 C)
Relative Humidity: 88%
Pressure (altimeter): 29.74 in. Hg (1007 hPa)
ob: ZYTX 242100Z 15003MPS CAVOK 23/21 Q1007 NOSIG
cycle: 21

Station Type Date Time Source
ZYTX TAF 2021/07/24 18:03 UTC NOAA

TAF ZYTX 241501Z 2418/2518 21004MPS 6000 NSC TX33/2506Z TN24/2421Z

Example: see airport list